Aruba, Aruba

12:31 AM AST on March 04, 2015 (GMT -0400)
Oranjestad-Reina Beatrix International | Change Station
CLOSE
Current Station
Airport
Location: Aruba,
Elevation: 59 ft
Nearby Weather Stations

Elev 59 ft 12.50 °N, 70.02 °W | Updated 31 minutes ago

Partly Cloudy
Partly Cloudy
81 °F
Feels Like 85 °F
N
18
Wind Variable Wind from ENE

Today
High -- | Low -- °F
--% Chance of Precip.
Yesterday
High -- | Low -- °F
Precip. -- in
6:54 AM 6:49 PM
Waxing Gibbous, 98% visible
Pressure 29.92 in
Visibility 6.2 miles
Clouds Few 1800 ft
Heat Index 85 °F
Dew Point 72 °F
Humidity 74%
Rainfall 0.00 in
Snow Depth Not available.
UV 0 out of 12
Pollen Not available.
Air Quality Not available.
Flu Activity Not available.
METAR TNCA 040400Z 07016KT 9999 FEW018 27/22 Q1013 A2993 NOSIG

More Conditions Fewer Conditions

Pressure 29.92 in
Visibility 6.2 miles
Clouds Few 1800 ft
Heat Index 85 °F
Dew Point 72 °F
Humidity 74%
Rainfall 0.00 in
Snow Depth Not available.
UV 0 out of 12
Pollen Not available.
Air Quality Not available.
Flu Activity Not available.
METAR TNCA 040400Z 07016KT 9999 FEW018 27/22 Q1013 A2993 NOSIG

More Conditions Fewer Conditions

10-Day Weather Forecast

Almanac

Astronomy

Mar. 04, 2015 Rise Set
Actual Time
Civil Twilight
Nautical Twilight
Astronomical Twilight
Moon
Length of Visible Light
Length of Day
Tomorrow will be .
, % of the Moon is Illuminated

Today's Extremes

Country Highs Country Lows

Community

WunderPhotos

Upload Photos

1,802,385 photos uploaded!

WunderBlogs® & News

Nearby

Air Quality

  Air Quality AQ Index Pollutant
Not available.

Snow Depth

Station Depth Elevation

Earthquake Activity

City Distance Mag. Time & Date
Minimum magnitude displayed is 2.5.

Coastal Water Temperatures

Place Temperature

Nearby Weather Stations